^^

Nearby METAR Reports

 

KBJC - Broomfield, Colorado
Distance from station: ESE 4mi, 6km
Updated: 09/23/2018 10:45am
Few Clouds
Few Clouds
 Wind from SSE
Wind: SSE 8 mph , 13 km/h
Temperature: 81°F , 27°C
Dew Point: 28°F , -2°C
Humidity: 15%
Barometer: 1019.3 hPa
Clouds: Few Clouds
Visibility: 50 miles , 80 km
Cloud details: Few Clouds 25000 ft
2018/09/23 16:45 KBJC 231645Z 15007KT 50SM FEW250 27/M02 A3010
KBDU - Boulder, Colorado
Distance from station: NNW 8mi, 13km
Updated: 09/23/2018 11:12am
Clear
Clear
 Wind from E
Wind: E 6 mph , 9 km/h
Temperature: 82°F , 28°C
Dew Point: 30°F , -1°C
Humidity: 15%
Barometer: 1017.3 hPa
Clouds: Clear
Visibility: 10 miles , 16 km
2018/09/23 17:12 KBDU 231712Z AUTO 10005KT 10SM CLR 28/M01 A3004 RMK AO2
KEIK - Erie, Colorado
Distance from station: NE 8mi, 14km
Updated: 09/23/2018 11:12am
Clear
Clear
 Wind from SE
Wind: SE 10 mph , 17 km/h
Temperature: 84°F , 29°C
Dew Point: 21°F , -6°C
Humidity: 10%
Barometer: 1019 hPa
Clouds: Clear
Visibility: 10 miles , 16 km
2018/09/23 17:12 KEIK 231712Z AUTO 14009KT 10SM CLR 29/M06 A3009 RMK AO2 T02851060
 
KLMO - Longmont, Colorado
Distance from station: N 17mi, 27km
Updated: 09/23/2018 11:15am
Clear
Clear
 Wind from SE
Wind: SE 9 mph , 15 km/h
Temperature: 86°F , 30°C
Dew Point: 28°F , -2°C
Humidity: 12%
Barometer: 1017.3 hPa
Clouds: Clear
Visibility: 10 miles , 16 km
2018/09/23 17:15 KLMO 231715Z AUTO 13008KT 10SM CLR 30/M02 A3004 RMK AO2 T02951020
KDEN - Denver (DIA), Colorado
Distance from station: E 27mi, 44km
Updated: 09/23/2018 10:53am
Few Clouds
Few Clouds
 Wind from W
Wind: W 6 mph , 9 km/h
Temperature: 81°F , 27°C
Dew Point: 21°F , -6°C
Humidity: 11%
Barometer: 1018.6 hPa
Clouds: Few Clouds
Visibility: 10 miles , 16 km
Cloud details: Few Clouds 13000 ft
Few Clouds 20000 ft
2018/09/23 16:53 KDEN 231653Z 27005KT 10SM FEW130 FEW200 27/M06 A3008 RMK AO2 SLP108 T02721056
KFNL - Ft Collins, Colorado
Distance from station: N 37mi, 59km
Updated: 09/23/2018 10:56am
Clear
Clear
 Wind from SE
Wind: SE 8 mph , 13 km/h
Temperature: 75°F , 24°C
Dew Point: 37°F , 3°C
Humidity: 25%
Barometer: 1017.6 hPa
Clouds: Clear
Visibility: 10 miles , 16 km
2018/09/23 16:56 KFNL 231656Z AUTO 13007KT 10SM CLR 24/03 A3005 RMK AO2 SLP115 T02440028 PNO $
 
KGXY - Greeley, Colorado
Distance from station: NE 44mi, 71km
Updated: 09/23/2018 10:56am
Clear
Clear
 Wind from SSE
Wind: SSE 5 mph , 7 km/h
Temperature: 79°F , 26°C
Dew Point: 34°F , 1°C
Humidity: 20%
Barometer: 1017.3 hPa
Clouds: Clear
Visibility: 10 miles , 16 km
2018/09/23 16:56 KGXY 231656Z 16004KT 10SM CLR 26/01 A3004 RMK AO2 SLP137 T02610006
KSBS - Steamboat Springs, Colorado
Distance from station: N 99mi, 159km
Updated: 09/23/2018 11:15am
Partly cloudy
Partly cloudy
 Wind from calm
Wind: Calm
Temperature: 66°F , 19°C
Dew Point: 27°F , -3°C
Humidity: 22%
Barometer: 1022 hPa
Clouds: Partly cloudy
Visibility: 10 miles , 16 km
Cloud details: Partly cloudy 11000 ft
2018/09/23 17:15 KSBS 231715Z AUTO 00000KT 10SM SCT110 19/M03 A3018 RMK AO1 T01901028
KEGE - Eagle Co. Region, Colorado
Distance from station: SW 96mi, 154km
Updated: 09/23/2018 10:56am
Partly cloudy
Partly cloudy
 Wind from calm
Wind: Calm
Temperature: 59°F , 15°C
Dew Point: 25°F , -4°C
Humidity: 27%
Barometer: 1024.4 hPa
Clouds: Partly cloudy
Visibility: 10 miles , 16 km
Cloud details: Partly cloudy 12000 ft
2018/09/23 16:56 KEGE 231656Z 00000KT 10SM SCT120 15/M04 A3025 RMK AO2 SLP210 T01501044 PNO $
 
KGJT - Grand Junction, Colorado
Distance from station: WSW 187mi, 302km
Updated: 09/23/2018 10:53am
Clear
Clear
 Wind from S
Wind: S 5 mph , 7 km/h
Temperature: 72°F , 22°C
Dew Point: 30°F , -1°C
Humidity: 22%
Barometer: 1019.6 hPa
Clouds: Clear
Visibility: 10 miles , 16 km
2018/09/23 16:53 KGJT 231653Z 18004KT 10SM CLR 22/M01 A3011 RMK AO2 SLP136 T02221011 $
KDRO - Durango, Colorado
Distance from station: SW 238mi, 383km
Updated: 09/23/2018 10:53am
Few Clouds
Few Clouds
 Wind from ESE
Wind: ESE 6 mph , 9 km/h
Temperature: 68°F , 20°C
Dew Point: 34°F , 1°C
Humidity: 28%
Barometer: 1025.1 hPa
Clouds: Few Clouds
Visibility: 10 miles , 16 km
Cloud details: Few Clouds 10000 ft
2018/09/23 16:53 KDRO 231653Z AUTO 12005KT 10SM FEW100 20/01 A3027 RMK AO2 SLP185 T02000011
KCYS - Cheyenne, Wyoming
Distance from station: N 86mi, 139km
Updated: 09/23/2018 11:19am
Few Clouds
Few Clouds
 Wind from W
Wind: W 14 mph , 22 km/h, Gust: 22 mph , 35 km/h
Temperature: 81°F , 27°C
Dew Point: 25°F , -4°C
Humidity: 13%
Barometer: 1018.6 hPa
Clouds: Few Clouds
Visibility: 10 miles , 16 km
Cloud details: Few Clouds 12000 ft
2018/09/23 17:19 KCYS 231719Z 28012G19KT 10SM FEW120 27/M04 A3008 RMK AO2 WSHFT 1659 T02721044 $
 
KCOS - Colorado Springs, Colorado
Distance from station: S 74mi, 120km
Updated: 09/23/2018 10:54am
Partly cloudy
Partly cloudy
 Wind from varies
Wind: varies 5 mph , 7 km/h
Temperature: 81°F , 27°C
Dew Point: 25°F , -4°C
Humidity: 13%
Barometer: 1021 hPa
Clouds: Partly cloudy
Visibility: 10 miles , 16 km
Cloud details: Few Clouds 11000 ft
Partly cloudy 25000 ft
2018/09/23 16:54 KCOS 231654Z VRB04KT 10SM FEW110 SCT250 27/M04 A3015 RMK AO2 SLP118 T02671039 $
KPUB - Pueblo, Colorado
Distance from station: S 119mi, 192km
Updated: 09/23/2018 10:53am
Clear
Clear
 Wind from calm
Wind: Calm
Temperature: 79°F , 26°C
Dew Point: 37°F , 3°C
Humidity: 23%
Barometer: 1017.9 hPa
Clouds: Clear
Visibility: 10 miles , 16 km
2018/09/23 16:53 KPUB 231653Z 00000KT 10SM CLR 26/03 A3006 RMK AO2 SLP116 T02610028
KLAA - Lamar, Colorado
Distance from station: ESE 184mi, 297km
Updated: 09/23/2018 10:53am
Clear
Clear
 Wind from W
Wind: W 8 mph , 13 km/h
Temperature: 79°F , 26°C
Dew Point: 41°F , 5°C
Humidity: 26%
Barometer: 1015.6 hPa
Clouds: Clear
Visibility: 10 miles , 16 km
2018/09/23 16:53 KLAA 231653Z AUTO 28007KT 10SM CLR 26/05 A2999 RMK AO2 SLP110 T02610050